createdAt,value
2023-05-12T00:00:41.746Z,16.45
2023-05-12T00:05:43.350Z,18.75
2023-05-12T00:10:46.363Z,28.30
2023-05-12T00:15:47.948Z,23.83
2023-05-12T00:20:49.500Z,25.75
2023-05-12T00:25:55.085Z,17.27
2023-05-12T00:30:56.825Z,16.50
2023-05-12T00:36:00.525Z,16.17
2023-05-12T00:41:03.560Z,16.48
2023-05-12T00:46:06.011Z,17.33
2023-05-12T00:51:08.852Z,18.30
2023-05-12T00:56:13.320Z,19.35
2023-05-12T01:01:15.175Z,17.58
2023-05-12T01:06:23.858Z,17.52
2023-05-12T01:11:29.616Z,22.75
2023-05-12T01:16:35.883Z,26.02
2023-05-12T01:21:37.906Z,17.92
2023-05-12T01:26:40.904Z,17.40
2023-05-12T01:31:43.115Z,16.30
2023-05-12T01:36:44.920Z,18.38
2023-05-12T01:41:50.472Z,18.50
2023-05-12T01:46:52.129Z,17.02
2023-05-12T01:51:53.710Z,17.60
2023-05-12T01:56:59.790Z,17.52
2023-05-12T02:02:01.453Z,17.35
2023-05-12T02:07:03.261Z,16.58
2023-05-12T02:12:07.240Z,16.23
2023-05-12T02:17:08.824Z,16.80
2023-05-12T02:22:10.438Z,16.85
2023-05-12T02:27:13.495Z,16.00
2023-05-12T02:32:15.094Z,18.05
2023-05-12T02:37:16.841Z,18.80
2023-05-12T02:42:24.159Z,18.40
2023-05-12T02:47:25.767Z,20.63
2023-05-12T02:52:28.696Z,29.30
2023-05-12T02:57:31.654Z,20.95
2023-05-12T03:02:33.379Z,20.17
2023-05-12T03:07:35.240Z,17.63
2023-05-12T03:12:40.342Z,19.42
2023-05-12T03:17:42.360Z,16.92
2023-05-12T03:22:44.099Z,18.02
2023-05-12T03:27:49.493Z,12.70
2023-05-12T03:32:51.180Z,13.18
2023-05-12T03:37:52.725Z,14.23
2023-05-12T03:42:55.672Z,14.48
2023-05-12T03:47:57.372Z,14.15
2023-05-12T03:52:58.920Z,16.17
2023-05-12T03:58:01.884Z,17.52
2023-05-12T04:03:03.669Z,18.80
2023-05-12T04:08:05.856Z,18.92
2023-05-12T04:13:08.929Z,18.00
2023-05-12T04:18:10.487Z,19.65
2023-05-12T04:23:12.119Z,16.40
2023-05-12T04:28:19.670Z,16.50
2023-05-12T04:38:36.741Z,17.23
2023-05-12T04:49:01.335Z,14.95
2023-05-12T04:54:04.263Z,14.82
2023-05-12T04:59:07.269Z,15.88
2023-05-12T05:04:10.136Z,17.90
2023-05-12T05:09:14.050Z,17.13
2023-05-12T05:14:17.078Z,16.50
2023-05-12T05:19:23.376Z,15.00
2023-05-12T05:24:37.355Z,14.73
2023-05-12T05:29:42.615Z,14.48
2023-05-12T05:34:45.558Z,13.80
2023-05-12T05:39:48.180Z,13.57
2023-05-12T05:44:51.178Z,14.23
2023-05-12T05:49:52.834Z,12.93
2023-05-12T05:54:54.459Z,14.65
2023-05-12T05:59:57.484Z,13.15
2023-05-12T06:05:01.824Z,11.38
2023-05-12T06:10:03.888Z,11.52
2023-05-12T06:15:08.292Z,10.35
2023-05-12T06:20:10.527Z,11.65
2023-05-12T06:25:15.505Z,9.98
2023-05-12T06:30:18.667Z,10.63
2023-05-12T06:35:21.972Z,11.50
2023-05-12T06:40:23.746Z,10.82
2023-05-12T06:45:26.707Z,10.30
2023-05-12T06:50:28.288Z,8.68
2023-05-12T06:55:32.256Z,9.00
2023-05-12T07:00:35.222Z,8.85
2023-05-12T07:05:36.953Z,9.43
2023-05-12T07:10:38.593Z,11.02
2023-05-12T07:15:41.643Z,10.35
2023-05-12T07:20:45.995Z,9.85
2023-05-12T07:25:47.713Z,7.90
2023-05-12T07:30:53.928Z,8.38
2023-05-12T07:35:55.511Z,7.38
2023-05-12T07:40:57.177Z,6.22
2023-05-12T07:46:02.410Z,5.35
2023-05-12T07:51:04.400Z,5.13
2023-05-12T07:56:07.668Z,4.53
2023-05-12T08:01:13.161Z,6.28
2023-05-12T08:06:14.733Z,5.60
2023-05-12T08:11:16.314Z,5.70
2023-05-12T08:16:19.296Z,5.60
2023-05-12T08:21:28.070Z,3.58
2023-05-12T08:26:35.304Z,4.45
2023-05-12T08:31:39.524Z,5.03
2023-05-12T08:36:41.387Z,4.20
2023-05-12T08:41:45.222Z,4.30
2023-05-12T08:46:48.915Z,5.15
2023-05-12T08:51:58.124Z,4.82
2023-05-12T09:02:09.414Z,5.50
2023-05-12T09:07:14.018Z,6.10
2023-05-12T09:12:19.695Z,6.10
2023-05-12T09:17:25.315Z,5.20
2023-05-12T09:22:30.290Z,5.30
2023-05-12T09:27:34.325Z,3.67
2023-05-12T09:32:39.696Z,3.95
2023-05-12T09:37:41.396Z,4.38
2023-05-12T09:42:43.130Z,3.92
2023-05-12T09:47:46.234Z,2.35
2023-05-12T09:52:50.327Z,3.00
2023-05-12T09:57:54.289Z,1.80
2023-05-12T10:03:02.722Z,3.25
2023-05-12T10:08:07.364Z,2.90
2023-05-12T10:13:09.386Z,2.60
2023-05-12T10:18:12.854Z,2.40
2023-05-12T10:23:17.607Z,2.15
2023-05-12T10:28:22.267Z,1.58
2023-05-12T10:33:27.471Z,1.80
2023-05-12T10:38:36.234Z,1.90
2023-05-12T10:43:40.259Z,2.00
2023-05-12T10:48:54.709Z,2.40
2023-05-12T10:53:57.475Z,1.20
2023-05-12T10:59:14.765Z,1.63
2023-05-12T11:04:20.549Z,1.48
2023-05-12T11:09:24.674Z,1.23
2023-05-12T11:14:29.268Z,2.40
2023-05-12T11:19:34.497Z,2.45
2023-05-12T11:24:40.066Z,1.60
2023-05-12T11:29:42.572Z,1.27
2023-05-12T11:34:45.619Z,1.17
2023-05-12T11:39:54.343Z,1.80
2023-05-12T11:44:55.983Z,0.85
2023-05-12T11:50:06.091Z,0.80
2023-05-12T11:55:09.392Z,0.80
2023-05-12T12:00:12.422Z,1.05
2023-05-12T12:05:55.104Z,0.90
2023-05-12T12:10:58.186Z,1.80
2023-05-12T12:15:59.814Z,2.00
2023-05-12T12:21:01.588Z,2.17
2023-05-12T12:26:06.762Z,2.28
2023-05-12T12:31:08.506Z,2.92
2023-05-12T12:36:10.289Z,3.40
2023-05-12T12:41:13.208Z,3.90
2023-05-12T12:46:14.919Z,2.88
2023-05-12T12:51:16.788Z,3.13
2023-05-12T12:56:27.180Z,2.63
2023-05-12T13:01:28.817Z,2.63
2023-05-12T13:06:30.465Z,2.75
2023-05-12T13:11:33.398Z,2.30
2023-05-12T13:16:35.000Z,2.22
2023-05-12T13:21:36.753Z,1.15
2023-05-12T13:26:39.782Z,1.90
2023-05-12T13:31:41.496Z,2.65
2023-05-12T13:36:45.232Z,1.63
2023-05-12T13:41:48.231Z,2.55
2023-05-12T13:46:49.944Z,1.92
2023-05-12T13:51:52.897Z,1.90
2023-05-12T13:56:58.012Z,2.05
2023-05-12T14:01:59.902Z,2.00
2023-05-12T14:07:03.114Z,1.85
2023-05-12T14:12:09.856Z,2.20
2023-05-12T14:17:11.480Z,3.80
2023-05-12T14:22:25.530Z,2.92
2023-05-12T14:27:29.523Z,3.83
2023-05-12T14:32:31.162Z,2.95
2023-05-12T14:37:32.848Z,4.18
2023-05-12T14:42:43.270Z,3.03
2023-05-12T14:47:45.057Z,3.50
2023-05-12T14:52:46.650Z,2.95
2023-05-12T14:57:49.611Z,3.65
2023-05-12T15:02:51.308Z,4.50
2023-05-12T15:07:52.889Z,5.85
2023-05-12T15:12:55.934Z,6.25
2023-05-12T15:17:57.529Z,6.03
2023-05-12T15:22:59.271Z,4.93
2023-05-12T15:28:02.217Z,3.80
2023-05-12T15:33:04.037Z,4.13
2023-05-12T15:38:05.818Z,6.20
2023-05-12T15:43:11.152Z,6.85
2023-05-12T15:48:12.840Z,8.73
2023-05-12T15:53:17.975Z,8.18
2023-05-12T15:58:21.062Z,7.57
2023-05-12T16:03:23.349Z,11.00
2023-05-12T16:08:25.218Z,7.60
2023-05-12T16:13:30.627Z,8.20
2023-05-12T16:18:32.587Z,8.85
2023-05-12T16:23:34.260Z,6.72
2023-05-12T16:28:37.318Z,5.78
2023-05-12T16:33:39.071Z,8.65
2023-05-12T16:44:45.692Z,5.93
2023-05-12T16:49:49.985Z,7.78
2023-05-12T16:54:51.609Z,6.03
2023-05-12T17:00:02.145Z,6.00
2023-05-12T17:05:04.082Z,7.85
2023-05-12T17:10:06.285Z,6.65
2023-05-12T17:15:13.332Z,8.55
2023-05-12T17:20:16.035Z,8.90
2023-05-12T17:25:21.741Z,4.63
2023-05-12T17:30:25.794Z,8.68
2023-05-12T17:35:27.536Z,7.13
2023-05-12T17:40:31.270Z,6.10
2023-05-12T17:45:36.677Z,7.55
2023-05-12T17:50:38.263Z,7.63
2023-05-12T17:55:39.898Z,10.30
2023-05-12T18:00:45.201Z,7.43
2023-05-12T18:05:46.789Z,8.25
2023-05-12T18:10:50.608Z,6.57
2023-05-12T18:15:55.856Z,8.02
2023-05-12T18:20:57.513Z,5.05
2023-05-12T18:25:59.114Z,5.57
2023-05-12T18:31:15.098Z,6.60
2023-05-12T18:36:18.722Z,4.88
2023-05-12T18:41:27.793Z,6.68
2023-05-12T18:46:33.157Z,5.72
2023-05-12T18:51:34.851Z,6.25
2023-05-12T18:56:36.869Z,4.80
2023-05-12T19:01:39.988Z,7.55
2023-05-12T19:06:41.741Z,7.38
2023-05-12T19:11:43.328Z,5.30
2023-05-12T19:16:49.028Z,5.78
2023-05-12T19:27:54.516Z,4.60
2023-05-12T19:32:59.619Z,7.22
2023-05-12T19:38:08.742Z,7.32
2023-05-12T19:43:10.388Z,8.10
2023-05-12T19:48:23.747Z,5.72
2023-05-12T19:53:25.267Z,6.90
2023-05-12T19:58:26.840Z,7.10
2023-05-12T20:03:29.846Z,7.88
2023-05-12T20:08:31.424Z,7.35
2023-05-12T20:13:33.178Z,8.27
2023-05-12T20:18:36.150Z,8.15
2023-05-12T20:23:37.706Z,7.88
2023-05-12T20:28:39.417Z,7.30
2023-05-12T20:33:42.493Z,7.22
2023-05-12T20:38:45.586Z,7.30
2023-05-12T20:43:47.182Z,6.97
2023-05-12T20:48:51.353Z,8.30
2023-05-12T20:53:53.304Z,7.50
2023-05-12T20:58:55.082Z,4.53
2023-05-12T21:03:58.094Z,7.28
2023-05-12T21:09:02.782Z,8.52
2023-05-12T21:14:04.362Z,8.88
2023-05-12T21:19:07.740Z,9.38
2023-05-12T21:24:09.441Z,9.13
2023-05-12T21:29:11.039Z,7.53
2023-05-12T21:34:16.306Z,9.60
2023-05-12T21:39:20.895Z,7.20
2023-05-12T21:44:22.560Z,6.20
2023-05-12T21:49:34.312Z,6.38
2023-05-12T21:54:40.023Z,7.10
2023-05-12T21:59:43.103Z,4.70
2023-05-12T22:04:48.517Z,5.32
2023-05-12T22:09:50.156Z,6.13
2023-05-12T22:20:10.037Z,5.63
2023-05-12T22:25:14.072Z,4.40
2023-05-12T22:30:15.662Z,4.63
2023-05-12T22:35:19.114Z,4.93
2023-05-12T22:40:20.898Z,5.72
2023-05-12T22:45:22.656Z,6.65
2023-05-12T22:50:25.606Z,5.50
2023-05-12T22:55:27.865Z,7.57
2023-05-12T23:00:29.512Z,7.65
2023-05-12T23:05:35.792Z,6.18
2023-05-12T23:10:40.139Z,6.93
2023-05-12T23:15:43.065Z,10.73
2023-05-12T23:20:46.047Z,7.45
2023-05-12T23:25:55.159Z,7.38
2023-05-12T23:30:59.496Z,7.22
2023-05-12T23:36:02.520Z,5.93
2023-05-12T23:41:04.151Z,6.15
2023-05-12T23:46:05.750Z,5.70
2023-05-12T23:51:08.866Z,6.13
2023-05-12T23:56:10.379Z,5.68
